Portada
METAR-TAF:

METAR-TAF

Aeropuertos :

Aeropuerto de Granada

Granada, España

latitud: 37-11N, longitud: 003-47W, altitud: 567 m

Observación

El informe se hizo hace 40 minutos, a las 16:30 UTC
Viento 13 kt del norte-noreste, variando entre norte y este-noreste
Temperatura 17°C
Humedad 27%
Presión 1020 hPa
Visibilidad 10 km o más
Escasas nubes a una altura de 6000 ft

METAR: LEGR 191630Z 02013KT 350V060 9999 FEW060 17/M02 Q1020

Hora: 18:10 (17:10 UTC)

Pronóstico

El informe se hizo hace 3 horas y 10 minutos, a las 14:00 UTC
Pronóstico válido del 19 a las 15 UTC al 20 a las 15 UTC
Viento 2 kt con dirección variable
Visibilidad 10 km o más
Escasas nubes a una altura de 4000 ft
Probabilidad 40% :
Temporalmente
del 19 a las 15 UTC al 19 a las 19 UTC
Viento 10 kt del norte-noreste

TAF: LEGR 191400Z 1915/2015 VRB02KT 9999 FEW040 TX19/1915Z TN02/2007Z PROB40 TEMPO 1915/1919 02010KT

Observaciones y pronósticos meteorológicos de más de 4000 aeropuertos (mensajes METAR y TAF).

Los puntos amarillos y rojos representan las estaciones disponibles.

Ponga el ratón en el punto deseado para ver el nombre de la estación.

Haga clic para ver las observaciones y los pronósticos meteorológicos.

Para cambiar el mapa : haga clic en los botones verdes con una cruz de color negro para hacer un zoom, en el botón verde con un guión para alejar o en las flechas verdes para mapas adyacentes.


METAR-TAF: